Time;durP1;ratioP1;P1;durP2;ratioP2;P2;SDS_P1;SDS_P2;PMS_P1;PMS_P2;Temp;Humidity;BMP_temperature;BMP_pressure;BME280_temperature;BME280_humidity;BME280_pressure;Samples;Min_cycle;Max_cycle;Signal;HPM_P1;HPM_P2
2023/08/20 00:02:18;;;;;;;11.73;8.73;;;21.10;99.90;;;;;;5151003;28;20042;-62
2023/08/20 00:04:55;;;;;;;12.50;9.20;;;21.10;99.90;;;;;;5194506;28;20041;-61
2023/08/20 00:07:31;;;;;;;10.27;8.35;;;21.00;99.90;;;;;;5168674;28;20239;-64
2023/08/20 00:10:06;;;;;;;11.73;8.75;;;20.90;99.90;;;;;;5189939;28;20517;-65
2023/08/20 00:12:41;;;;;;;11.00;9.10;;;20.90;99.90;;;;;;5191516;28;20049;-64
2023/08/20 00:15:15;;;;;;;;;;;20.90;99.90;;;;;;5202512;28;20072;-63
2023/08/20 00:17:47;;;;;;;11.15;8.23;;;20.90;99.90;;;;;;5204080;28;19917;-63
2023/08/20 00:20:19;;;;;;;10.95;8.52;;;20.90;99.90;;;;;;5105601;28;20031;-63
2023/08/20 00:22:51;;;;;;;11.38;8.77;;;20.90;99.90;;;;;;5104980;28;20468;-63
2023/08/20 00:25:23;;;;;;;14.68;9.48;;;20.90;99.90;;;;;;5185941;28;20052;-63
2023/08/20 00:27:54;;;;;;;11.25;8.25;;;20.90;99.90;;;;;;5193524;28;20029;-63
2023/08/20 00:30:28;;;;;;;11.48;8.70;;;20.90;99.90;;;;;;5170190;28;20021;-64
2023/08/20 00:33:02;;;;;;;10.63;8.25;;;20.90;99.90;;;;;;5175693;28;20519;-64
2023/08/20 00:35:36;;;;;;;11.65;8.48;;;20.90;99.90;;;;;;5186655;28;20417;-62
2023/08/20 00:38:12;;;;;;;10.43;8.13;;;20.90;99.90;;;;;;5145049;28;20042;-62
2023/08/20 00:40:44;;;;;;;13.27;9.52;;;20.90;99.90;;;;;;5097637;28;20047;-65
2023/08/20 00:43:19;;;;;;;11.15;8.27;;;20.90;99.90;;;;;;5112596;29;20373;-63
2023/08/20 00:45:51;;;;;;;12.82;9.27;;;20.80;99.90;;;;;;5185213;28;20046;-64
2023/08/20 00:48:23;;;;;;;10.52;8.45;;;20.80;99.90;;;;;;5086718;28;20042;-64
2023/08/20 00:50:57;;;;;;;12.57;9.05;;;20.70;99.90;;;;;;5201625;28;20041;-64
2023/08/20 00:53:34;;;;;;;12.93;8.88;;;20.80;99.90;;;;;;5187830;28;20047;-65
2023/08/20 00:56:08;;;;;;;10.88;8.18;;;20.70;99.90;;;;;;5213141;28;20034;-66
2023/08/20 00:58:39;;;;;;;13.65;8.95;;;20.70;99.90;;;;;;5173467;28;20034;-64
2023/08/20 01:01:11;;;;;;;12.60;8.73;;;20.80;99.90;;;;;;5258015;23;20057;-69
2023/08/20 01:03:45;;;;;;;9.57;8.00;;;20.80;99.90;;;;;;5214511;28;20037;-69
2023/08/20 01:06:59;;;;;;;12.13;8.82;;;20.70;99.90;;;;;;5180059;28;20034;-70
2023/08/20 01:09:48;;;;;;;11.32;8.65;;;20.70;99.90;;;;;;5199582;28;20063;-69
2023/08/20 01:12:20;;;;;;;12.13;7.95;;;20.70;99.90;;;;;;5205267;28;20454;-70
2023/08/20 01:14:54;;;;;;;11.45;8.18;;;20.70;99.90;;;;;;5186638;28;20040;-70
2023/08/20 01:17:36;;;;;;;11.35;8.93;;;20.70;99.90;;;;;;5221045;28;20029;-70
2023/08/20 01:20:13;;;;;;;12.98;8.68;;;20.70;99.90;;;;;;5191524;28;20502;-70
2023/08/20 01:22:50;;;;;;;11.27;8.93;;;20.70;99.90;;;;;;5184671;28;20045;-70
2023/08/20 01:25:59;;;;;;;11.13;8.82;;;20.60;99.90;;;;;;5208196;28;20063;-71
2023/08/20 01:28:36;;;;;;;12.90;9.35;;;20.40;99.90;;;;;;5213970;28;20032;-70
2023/08/20 01:31:08;;;;;;;12.48;9.32;;;20.40;99.90;;;;;;5201990;28;20032;-71
2023/08/20 01:33:41;;;;;;;12.32;9.50;;;20.30;99.90;;;;;;5205125;28;20217;-73
2023/08/20 01:36:15;;;;;;;12.93;9.50;;;20.30;99.90;;;;;;5170187;28;20037;-71
2023/08/20 01:38:46;;;;;;;13.80;9.93;;;20.30;99.90;;;;;;5189883;28;20037;-71
2023/08/20 01:41:22;;;;;;;11.48;9.02;;;20.30;99.90;;;;;;5201352;28;20277;-71
2023/08/20 01:43:54;;;;;;;14.43;10.40;;;20.30;99.90;;;;;;5182230;28;20037;-71
2023/08/20 01:46:25;;;;;;;13.32;9.80;;;20.30;99.90;;;;;;5190726;28;20046;-71
2023/08/20 01:49:03;;;;;;;11.20;8.35;;;20.30;99.90;;;;;;5162830;28;20044;-71
2023/08/20 01:51:36;;;;;;;12.40;8.90;;;20.30;99.90;;;;;;5198764;28;20053;-70
2023/08/20 01:54:08;;;;;;;12.80;9.15;;;20.30;99.90;;;;;;5182957;28;20057;-70
2023/08/20 01:56:42;;;;;;;11.82;9.25;;;20.30;99.90;;;;;;5184617;28;20038;-69
2023/08/20 01:59:18;;;;;;;13.85;9.48;;;20.40;99.90;;;;;;5188524;28;20047;-69
2023/08/20 02:02:05;;;;;;;11.35;8.65;;;20.30;99.90;;;;;;5192613;28;20030;-69
2023/08/20 02:04:38;;;;;;;10.52;9.20;;;20.30;99.90;;;;;;5182251;28;20060;-70
2023/08/20 02:07:11;;;;;;;12.07;9.25;;;20.30;99.90;;;;;;5189475;28;20262;-70
2023/08/20 02:09:42;;;;;;;10.73;8.55;;;20.20;99.90;;;;;;5203292;28;20036;-69
2023/08/20 02:12:14;;;;;;;10.73;8.23;;;20.20;99.90;;;;;;5202897;28;20037;-71
2023/08/20 02:14:46;;;;;;;13.13;9.18;;;20.20;99.90;;;;;;5196908;28;20033;-71
2023/08/20 02:17:18;;;;;;;13.40;9.38;;;20.10;99.90;;;;;;5186100;28;20041;-68
2023/08/20 02:19:52;;;;;;;12.57;9.30;;;20.10;99.90;;;;;;5185724;28;20049;-70
2023/08/20 02:22:29;;;;;;;11.18;8.60;;;20.00;99.90;;;;;;5173421;28;20026;-70
2023/08/20 02:25:04;;;;;;;10.10;8.18;;;20.00;99.90;;;;;;5151141;28;20083;-70
2023/08/20 02:27:36;;;;;;;12.88;9.70;;;20.00;99.90;;;;;;5182052;28;20026;-71
2023/08/20 02:30:08;;;;;;;14.43;9.35;;;20.00;99.90;;;;;;5199832;28;20505;-70
2023/08/20 02:32:43;;;;;;;10.80;8.73;;;19.90;99.90;;;;;;5168693;28;20372;-70
2023/08/20 02:35:18;;;;;;;12.65;9.27;;;20.00;99.90;;;;;;5217965;28;20041;-70
2023/08/20 02:37:49;;;;;;;12.23;9.13;;;20.00;99.90;;;;;;5187801;28;20037;-69
2023/08/20 02:40:24;;;;;;;11.70;9.68;;;20.00;99.90;;;;;;5198065;28;20044;-70
2023/08/20 02:42:58;;;;;;;12.18;9.45;;;19.90;99.90;;;;;;5188221;28;20492;-69
2023/08/20 02:45:31;;;;;;;14.27;9.88;;;19.80;99.90;;;;;;5194278;28;20052;-69
2023/08/20 02:48:06;;;;;;;14.13;10.23;;;19.70;99.90;;;;;;5213651;28;20337;-70
2023/08/20 02:50:39;;;;;;;13.13;9.68;;;19.70;99.90;;;;;;5205758;28;20021;-70
2023/08/20 02:53:16;;;;;;;12.93;10.35;;;19.60;99.90;;;;;;5201350;28;20573;-71
2023/08/20 02:55:55;;;;;;;12.18;9.18;;;19.60;99.90;;;;;;5183965;28;20033;-69
2023/08/20 02:58:28;;;;;;;10.15;8.90;;;19.60;99.90;;;;;;5197609;28;20045;-70
2023/08/20 03:01:03;;;;;;;14.30;9.90;;;19.60;99.90;;;;;;5163971;28;20042;-70
2023/08/20 03:03:37;;;;;;;12.90;9.18;;;19.50;99.90;;;;;;5179510;28;20045;-70
2023/08/20 03:06:13;;;;;;;14.88;9.85;;;19.50;99.90;;;;;;5182911;28;20037;-70
2023/08/20 03:08:45;;;;;;;12.02;8.40;;;19.50;99.90;;;;;;5167341;28;20048;-69
2023/08/20 03:11:22;;;;;;;11.85;9.07;;;19.50;99.90;;;;;;5203447;28;20142;-70
2023/08/20 03:13:55;;;;;;;12.52;9.30;;;19.50;99.90;;;;;;5181260;28;20055;-69
2023/08/20 03:16:27;;;;;;;10.75;8.90;;;19.60;99.90;;;;;;5210994;28;20034;-69
2023/08/20 03:19:02;;;;;;;10.35;8.13;;;19.60;99.90;;;;;;5199414;28;20038;-69
2023/08/20 03:21:36;;;;;;;12.50;9.48;;;19.60;99.90;;;;;;5181587;28;20599;-69
2023/08/20 03:24:11;;;;;;;10.55;8.70;;;19.60;99.90;;;;;;5166300;28;20041;-70
2023/08/20 03:26:47;;;;;;;22.08;9.77;;;19.60;99.90;;;;;;5179700;28;20258;-70
2023/08/20 03:29:27;;;;;;;12.35;8.57;;;19.60;99.90;;;;;;5163953;28;20049;-70
2023/08/20 03:32:01;;;;;;;17.52;9.63;;;19.70;99.90;;;;;;5176085;28;20038;-71
2023/08/20 03:34:38;;;;;;;10.82;8.25;;;19.60;99.90;;;;;;5187844;28;20044;-70
2023/08/20 03:37:13;;;;;;;12.23;8.10;;;19.60;99.90;;;;;;5167190;28;20540;-69
2023/08/20 03:39:45;;;;;;;12.85;9.13;;;19.60;99.90;;;;;;5181154;28;20044;-69
2023/08/20 03:42:16;;;;;;;11.40;9.15;;;19.60;99.90;;;;;;5197153;28;20037;-70
2023/08/20 03:44:53;;;;;;;11.95;8.85;;;19.70;99.90;;;;;;5201157;28;20095;-70
2023/08/20 03:47:25;;;;;;;13.10;9.90;;;19.80;99.90;;;;;;5180464;28;20045;-70
2023/08/20 03:49:59;;;;;;;11.45;8.63;;;19.70;99.90;;;;;;5202656;28;20041;-69
2023/08/20 03:52:31;;;;;;;12.40;9.70;;;19.70;99.90;;;;;;5200801;28;20349;-69
2023/08/20 03:55:04;;;;;;;9.65;8.35;;;19.60;99.90;;;;;;5187902;28;20053;-69
2023/08/20 03:57:37;;;;;;;13.13;9.80;;;19.60;99.90;;;;;;5196508;28;20046;-70
2023/08/20 04:00:12;;;;;;;11.10;8.88;;;19.40;99.90;;;;;;5178673;28;20029;-70
2023/08/20 04:02:46;;;;;;;13.13;9.38;;;19.30;99.90;;;;;;5207959;28;20034;-71
2023/08/20 04:05:20;;;;;;;13.30;9.70;;;19.30;99.90;;;;;;5208263;28;20044;-70
2023/08/20 04:07:58;;;;;;;10.73;8.88;;;19.30;99.90;;;;;;5181349;28;20046;-71
2023/08/20 04:10:31;;;;;;;16.50;10.27;;;19.30;99.90;;;;;;5196321;28;20049;-71
2023/08/20 04:13:03;;;;;;;15.85;9.82;;;19.30;99.90;;;;;;5195394;28;20052;-70
2023/08/20 04:15:39;;;;;;;13.73;9.63;;;19.30;99.90;;;;;;5174655;28;20030;-70
2023/08/20 04:18:12;;;;;;;13.68;9.57;;;19.40;99.90;;;;;;5179389;28;20052;-70
2023/08/20 04:20:46;;;;;;;14.23;10.27;;;19.40;99.90;;;;;;5175556;28;20374;-69
2023/08/20 04:23:20;;;;;;;17.33;10.95;;;19.50;99.90;;;;;;5200077;28;20399;-69
2023/08/20 04:25:54;;;;;;;13.33;9.53;;;19.60;99.90;;;;;;5159166;28;20350;-70
2023/08/20 04:28:28;;;;;;;13.60;9.13;;;19.70;99.90;;;;;;5183659;28;20045;-70
2023/08/20 04:31:01;;;;;;;;;;;19.80;99.90;;;;;;5164406;28;20044;-69
2023/08/20 04:33:33;;;;;;;13.10;10.45;;;19.90;99.90;;;;;;5176633;28;19922;-70
2023/08/20 04:36:08;;;;;;;15.60;10.68;;;20.00;99.90;;;;;;5177807;28;20361;-71
2023/08/20 04:38:41;;;;;;;10.93;9.63;;;20.10;99.90;;;;;;5160869;28;20038;-70
2023/08/20 04:41:15;;;;;;;13.68;9.52;;;20.30;99.90;;;;;;5198648;28;20048;-69
2023/08/20 04:43:47;;;;;;;9.75;8.30;;;20.50;99.90;;;;;;5198081;28;20041;-69
2023/08/20 04:46:21;;;;;;;11.88;8.65;;;20.70;99.90;;;;;;5175899;28;20261;-69
2023/08/20 04:48:56;;;;;;;8.77;7.67;;;20.90;99.90;;;;;;5163198;28;20040;-69
2023/08/20 04:51:31;;;;;;;10.13;7.97;;;21.10;99.90;;;;;;5178899;28;20038;-70
2023/08/20 04:54:04;;;;;;;;;;;21.40;99.90;;;;;;5165035;28;20552;-71
2023/08/20 04:56:42;;;;;;;8.82;7.47;;;21.60;44.10;;;;;;5178438;28;19914;-70
2023/08/20 04:59:26;;;;;;;8.65;7.60;;;21.80;1.00;;;;;;5198731;28;20029;-70
2023/08/20 05:01:57;;;;;;;13.18;8.20;;;22.10;1.00;;;;;;5183736;28;20048;-70
2023/08/20 05:04:32;;;;;;;8.00;6.93;;;22.30;1.00;;;;;;5172222;28;20042;-70
2023/08/20 05:07:14;;;;;;;10.88;7.97;;;22.50;1.00;;;;;;5198542;28;20033;-69
2023/08/20 05:09:45;;;;;;;9.45;7.40;;;22.80;1.00;;;;;;5204591;28;20049;-71
2023/08/20 05:12:23;;;;;;;11.15;7.50;;;23.10;1.00;;;;;;5173135;28;20148;-69
2023/08/20 05:15:05;;;;;;;9.93;6.65;;;23.30;1.00;;;;;;5179192;28;20293;-69
2023/08/20 05:17:39;;;;;;;10.50;7.78;;;23.60;1.00;;;;;;5177187;28;20362;-70
2023/08/20 05:20:11;;;;;;;9.32;7.38;;;23.70;99.90;;;;;;5174105;28;20052;-71
2023/08/20 05:22:46;;;;;;;9.43;7.03;;;23.90;99.90;;;;;;5208938;28;20033;-69
2023/08/20 05:25:17;;;;;;;;;;;23.90;99.90;;;;;;5220947;28;20037;-69
2023/08/20 05:27:49;;;;;;;9.38;7.20;;;24.10;99.90;;;;;;5197950;28;19921;-69
2023/08/20 05:30:20;;;;;;;8.77;7.38;;;24.20;99.90;;;;;;5196844;28;20064;-71
2023/08/20 05:32:58;;;;;;;9.27;7.05;;;24.30;1.00;;;;;;5156869;28;20057;-70
2023/08/20 05:35:29;;;;;;;8.13;6.53;;;24.40;1.00;;;;;;5176745;28;20038;-70
2023/08/20 05:38:08;;;;;;;8.82;7.28;;;24.50;1.00;;;;;;5194988;28;20102;-70
2023/08/20 05:40:39;;;;;;;10.88;7.68;;;24.60;1.00;;;;;;5157159;28;20033;-70
2023/08/20 05:43:11;;;;;;;8.95;7.68;;;24.70;1.00;;;;;;5165356;28;20050;-71
2023/08/20 05:45:45;;;;;;;10.23;7.22;;;24.90;1.00;;;;;;5177381;28;20040;-69
2023/08/20 05:48:17;;;;;;;8.38;6.97;;;25.20;99.90;;;;;;5210314;28;20056;-72
2023/08/20 05:50:48;;;;;;;8.23;6.57;;;25.50;99.90;;;;;;5182202;28;20044;-70
2023/08/20 05:53:25;;;;;;;7.75;6.15;;;25.60;99.90;;;;;;5198155;28;20025;-72
2023/08/20 05:55:57;;;;;;;8.60;7.43;;;25.90;99.90;;;;;;5199573;28;20030;-71
2023/08/20 05:58:32;;;;;;;9.45;7.00;;;26.30;1.00;;;;;;5187559;28;20124;-70
2023/08/20 06:01:03;;;;;;;9.35;7.15;;;26.60;1.00;;;;;;5166673;28;20038;-71
2023/08/20 06:03:37;;;;;;;8.68;7.38;;;26.80;1.00;;;;;;5162246;28;20050;-71
2023/08/20 06:06:09;;;;;;;11.68;8.23;;;27.10;1.00;;;;;;5178845;28;20121;-70
2023/08/20 06:08:43;;;;;;;7.22;6.15;;;27.20;1.00;;;;;;5189715;28;20943;-71
2023/08/20 06:11:15;;;;;;;8.18;6.45;;;27.60;99.90;;;;;;5175240;28;20277;-71
2023/08/20 06:13:46;;;;;;;8.38;6.53;;;27.90;99.90;;;;;;5217719;28;20048;-71
2023/08/20 06:16:18;;;;;;;7.88;6.65;;;28.20;99.90;;;;;;5174202;28;20056;-71
2023/08/20 06:18:53;;;;;;;8.63;7.13;;;28.30;1.00;;;;;;5151386;28;20580;-72
2023/08/20 06:21:26;;;;;;;8.20;6.60;;;28.60;1.00;;;;;;5198548;28;20033;-70
2023/08/20 06:23:58;;;;;;;8.95;6.95;;;28.90;1.00;;;;;;5177745;28;20037;-71
2023/08/20 06:26:32;;;;;;;7.18;6.22;;;28.90;1.00;;;;;;5150471;28;20042;-70
2023/08/20 06:29:07;;;;;;;8.52;7.03;;;28.90;1.00;;;;;;5171132;28;20053;-72
2023/08/20 06:31:38;;;;;;;8.32;7.00;;;28.90;1.00;;;;;;5179813;28;20033;-71
2023/08/20 06:34:13;;;;;;;8.25;6.85;;;28.60;1.00;;;;;;5186091;28;20041;-72
2023/08/20 06:36:45;;;;;;;9.60;6.75;;;28.00;1.00;;;;;;5169399;28;20505;-71
2023/08/20 06:39:19;;;;;;;9.95;7.25;;;28.10;1.00;;;;;;5185690;28;20390;-70
2023/08/20 06:41:51;;;;;;;7.75;6.88;;;28.50;1.00;;;;;;5187855;28;20038;-71
2023/08/20 06:44:22;;;;;;;8.02;6.82;;;28.20;1.00;;;;;;5180399;28;20038;-72
2023/08/20 06:46:54;;;;;;;8.02;6.75;;;28.60;1.00;;;;;;5162192;28;20426;-71
2023/08/20 06:49:26;;;;;;;7.80;6.72;;;29.00;1.00;;;;;;5189881;28;20045;-70
2023/08/20 06:52:01;;;;;;;8.50;6.32;;;29.40;1.00;;;;;;5187544;28;20037;-70
2023/08/20 06:54:32;;;;;;;6.78;6.00;;;29.60;99.90;;;;;;5202150;28;20037;-71
2023/08/20 06:57:07;;;;;;;7.82;6.47;;;29.90;99.90;;;;;;5192218;28;21395;-71
2023/08/20 06:59:43;;;;;;;7.03;6.10;;;30.00;1.00;;;;;;5208442;28;20063;-71
2023/08/20 07:02:18;;;;;;;7.43;6.53;;;30.20;99.90;;;;;;5159911;28;20361;-70
2023/08/20 07:04:52;;;;;;;7.60;6.45;;;30.40;99.90;;;;;;5181596;28;20036;-70
2023/08/20 07:07:24;;;;;;;8.40;6.70;;;30.50;99.90;;;;;;5192032;28;20060;-70
2023/08/20 07:09:58;;;;;;;8.02;6.10;;;30.60;97.10;;;;;;5199122;28;20102;-71
2023/08/20 07:12:34;;;;;;;7.00;5.53;;;30.60;1.00;;;;;;5187956;28;20030;-71
2023/08/20 07:15:07;;;;;;;8.10;6.68;;;30.90;1.00;;;;;;5184431;28;20045;-71
2023/08/20 07:17:38;;;;;;;7.25;6.07;;;31.10;1.00;;;;;;5206264;28;20033;-70
2023/08/20 07:20:10;;;;;;;6.78;6.05;;;31.30;1.00;;;;;;5184632;28;20037;-71
2023/08/20 07:22:45;;;;;;;8.45;7.45;;;31.40;1.00;;;;;;5181326;28;20065;-70
2023/08/20 07:25:21;;;;;;;9.38;7.47;;;31.50;1.00;;;;;;5202332;28;20041;-70
2023/08/20 07:27:59;;;;;;;8.70;6.72;;;31.50;1.00;;;;;;5187031;28;20037;-71
2023/08/20 07:30:31;;;;;;;8.07;6.97;;;31.50;1.00;;;;;;5201211;28;20033;-70
2023/08/20 07:33:03;;;;;;;8.82;7.93;;;31.40;1.00;;;;;;5190955;28;20078;-72
2023/08/20 07:35:42;;;;;;;10.77;8.07;;;31.60;1.00;;;;;;5184192;28;20038;-71
2023/08/20 07:38:14;;;;;;;9.55;7.55;;;31.50;1.00;;;;;;5161263;28;20054;-72
2023/08/20 07:40:46;;;;;;;7.50;6.75;;;31.60;1.00;;;;;;5159793;28;20355;-73
2023/08/20 07:43:17;;;;;;;9.90;7.60;;;31.80;1.00;;;;;;5182816;28;20356;-70
2023/08/20 07:45:51;;;;;;;8.60;7.22;;;31.70;1.00;;;;;;5190310;28;20045;-71
2023/08/20 07:48:23;;;;;;;8.38;6.80;;;31.90;1.00;;;;;;5198645;28;20052;-70
2023/08/20 07:50:59;;;;;;;7.28;6.57;;;31.90;1.00;;;;;;5197971;28;20430;-71
2023/08/20 07:53:36;;;;;;;9.55;7.03;;;32.20;1.00;;;;;;5178182;28;21191;-71
2023/08/20 07:56:08;;;;;;;8.02;6.53;;;32.50;1.00;;;;;;5219713;28;20424;-72
2023/08/20 07:58:45;;;;;;;9.43;7.63;;;32.70;1.00;;;;;;5192192;28;20030;-73
2023/08/20 08:01:22;;;;;;;8.93;7.78;;;32.70;99.90;;;;;;5172519;28;20053;-72
2023/08/20 08:03:56;;;;;;;8.32;7.13;;;33.00;1.00;;;;;;5180941;28;20033;-70
2023/08/20 08:06:38;;;;;;;7.93;7.13;;;33.00;1.00;;;;;;5198967;28;20048;-70
2023/08/20 08:09:29;;;;;;;7.88;6.60;;;33.10;1.00;;;;;;5180823;28;20043;-71
2023/08/20 08:12:04;;;;;;;9.82;7.25;;;33.40;1.00;;;;;;5184238;28;20045;-73
2023/08/20 08:14:38;;;;;;;7.90;6.95;;;33.50;38.00;;;;;;5193701;28;20702;-71
2023/08/20 08:17:15;;;;;;;8.43;7.28;;;33.60;99.90;;;;;;5218617;28;20029;-71
2023/08/20 08:19:53;;;;;;;8.38;7.53;;;33.70;1.00;;;;;;5190306;28;20232;-74
2023/08/20 08:22:25;;;;;;;7.43;6.47;;;33.70;99.90;;;;;;5162849;28;20064;-71
2023/08/20 08:24:57;;;;;;;8.20;7.20;;;33.70;99.90;;;;;;5221996;28;20052;-71
2023/08/20 08:27:31;;;;;;;8.55;7.25;;;34.10;1.00;;;;;;5203654;28;20037;-71
2023/08/20 08:30:08;;;;;;;;;;;34.20;99.90;;;;;;5175187;28;20044;-71
2023/08/20 08:32:42;;;;;;;7.72;6.95;;;34.40;99.90;;;;;;5183716;28;19913;-75
2023/08/20 08:35:14;;;;;;;7.30;6.53;;;34.30;99.90;;;;;;5196469;28;20033;-72
2023/08/20 08:37:48;;;;;;;8.93;7.30;;;34.40;99.90;;;;;;5195736;28;20378;-71
2023/08/20 08:40:21;;;;;;;7.50;6.68;;;34.30;1.00;;;;;;5199864;28;20678;-72
2023/08/20 08:42:54;;;;;;;8.60;6.97;;;34.30;1.00;;;;;;5213724;28;20324;-70
2023/08/20 08:45:27;;;;;;;8.23;7.40;;;33.80;1.00;;;;;;5178324;28;20033;-72
2023/08/20 08:47:58;;;;;;;7.15;6.43;;;34.00;1.00;;;;;;5199916;28;20043;-73
2023/08/20 08:50:34;;;;;;;7.78;6.45;;;34.20;1.00;;;;;;5200189;28;20052;-74
2023/08/20 08:53:14;;;;;;;7.20;6.38;;;34.40;1.00;;;;;;5186474;28;20041;-71
2023/08/20 08:55:56;;;;;;;8.35;5.97;;;34.40;1.00;;;;;;5197380;28;20330;-71
2023/08/20 08:58:32;;;;;;;7.72;6.63;;;34.60;1.00;;;;;;5182952;28;20061;-74
2023/08/20 09:01:04;;;;;;;8.50;5.95;;;34.70;99.90;;;;;;5178369;28;20573;-72
2023/08/20 09:03:37;;;;;;;8.02;6.65;;;35.10;99.90;;;;;;5184114;28;20344;-72
2023/08/20 09:06:13;;;;;;;6.97;6.32;;;35.50;1.00;;;;;;5183623;28;20051;-71
2023/08/20 09:08:44;;;;;;;7.78;6.28;;;35.30;1.00;;;;;;5184400;28;20047;-73
2023/08/20 09:11:24;;;;;;;8.07;6.38;;;35.50;1.00;;;;;;5211430;28;20068;-71
2023/08/20 09:13:59;;;;;;;7.35;6.18;;;34.80;1.00;;;;;;5148191;28;20540;-71
2023/08/20 09:16:37;;;;;;;7.22;6.22;;;34.30;1.00;;;;;;5160127;28;21356;-73
2023/08/20 09:19:08;;;;;;;5.88;5.28;;;34.10;1.00;;;;;;5181147;28;20053;-72
2023/08/20 09:21:48;;;;;;;9.15;6.05;;;34.50;1.00;;;;;;5179494;28;20049;-72
2023/08/20 09:24:42;;;;;;;8.90;6.47;;;34.90;1.00;;;;;;5207906;28;20046;-72
2023/08/20 09:27:14;;;;;;;6.85;6.00;;;34.30;1.00;;;;;;5200746;28;20048;-71
2023/08/20 09:29:55;;;;;;;7.65;5.60;;;34.10;1.00;;;;;;5185721;28;20033;-71
2023/08/20 09:32:28;;;;;;;5.32;4.82;;;34.30;99.90;;;;;;5172016;28;20034;-70
2023/08/20 09:35:02;;;;;;;8.15;6.18;;;35.30;1.00;;;;;;5166886;28;20037;-74
2023/08/20 09:37:47;;;;;;;6.70;5.85;;;36.40;99.90;;;;;;5176765;28;20030;-74
2023/08/20 09:40:24;;;;;;;6.47;5.75;;;37.40;1.00;;;;;;5160505;28;20042;-72
2023/08/20 09:42:57;;;;;;;8.05;5.57;;;36.70;99.90;;;;;;5165006;28;20045;-72
2023/08/20 09:45:34;;;;;;;5.60;5.10;;;36.60;1.00;;;;;;5178437;28;20028;-72
2023/08/20 09:48:10;;;;;;;7.20;5.10;;;36.30;1.00;;;;;;5184250;28;20542;-71
2023/08/20 09:50:48;;;;;;;5.80;5.22;;;35.60;1.00;;;;;;5179371;28;20044;-71
2023/08/20 09:53:34;;;;;;;5.47;4.97;;;34.60;1.00;;;;;;5162989;28;20042;-72
2023/08/20 09:56:32;;;;;;;6.60;5.30;;;34.70;99.90;;;;;;5198825;28;20041;-72
2023/08/20 09:59:05;;;;;;;5.97;5.43;;;35.60;94.80;;;;;;5163443;28;20060;-71
2023/08/20 10:01:42;;;;;;;5.88;5.03;;;36.00;1.00;;;;;;5183760;28;20041;-71
2023/08/20 10:04:15;;;;;;;5.13;4.60;;;35.50;1.00;;;;;;5163318;28;20042;-71
2023/08/20 10:06:52;;;;;;;4.85;4.35;;;36.50;1.00;;;;;;5178578;28;20397;-71
2023/08/20 10:09:25;;;;;;;5.53;4.95;;;36.40;99.90;;;;;;5159603;28;20084;-71
2023/08/20 10:12:01;;;;;;;5.78;4.72;;;36.10;99.90;;;;;;5181081;28;20037;-71
2023/08/20 10:14:36;;;;;;;5.30;4.50;;;36.50;20.10;;;;;;5179527;28;20476;-72
2023/08/20 10:17:20;;;;;;;4.72;4.28;;;36.80;1.00;;;;;;5163729;28;20053;-71
2023/08/20 10:19:58;;;;;;;5.13;4.63;;;38.10;99.90;;;;;;5216556;28;20045;-72
2023/08/20 10:22:51;;;;;;;5.82;4.03;;;39.20;82.70;;;;;;5184635;28;20463;-72
2023/08/20 10:25:33;;;;;;;4.78;4.38;;;39.30;1.00;;;;;;5220029;28;20037;-72
2023/08/20 10:28:31;;;;;;;4.40;4.00;;;39.40;99.90;;;;;;5202139;28;20102;-70
2023/08/20 10:31:14;;;;;;;4.93;4.35;;;39.80;99.90;;;;;;5190637;28;20037;-71
2023/08/20 10:33:57;;;;;;;6.00;4.22;;;39.50;99.90;;;;;;5188260;28;20038;-72
2023/08/20 10:36:29;;;;;;;4.77;4.23;;;40.00;99.90;;;;;;5167625;28;20273;-73
2023/08/20 10:39:07;;;;;;;5.20;4.43;;;40.90;1.00;;;;;;5167209;28;20060;-73
2023/08/20 10:41:41;;;;;;;4.82;4.40;;;40.70;1.00;;;;;;5183621;28;20041;-72
2023/08/20 10:44:14;;;;;;;7.65;5.22;;;41.10;1.00;;;;;;5187164;28;20041;-71
2023/08/20 10:46:54;;;;;;;5.22;4.72;;;41.40;1.00;;;;;;5181987;28;20042;-72
2023/08/20 10:49:27;;;;;;;5.35;4.82;;;40.90;1.00;;;;;;5198162;28;20060;-71
2023/08/20 10:52:02;;;;;;;4.45;4.05;;;39.70;1.00;;;;;;5198670;28;20492;-74
2023/08/20 10:54:35;;;;;;;4.63;4.15;;;39.50;1.00;;;;;;5203279;28;20033;-72
2023/08/20 10:57:16;;;;;;;4.57;4.18;;;39.80;1.00;;;;;;5188273;28;20041;-70
2023/08/20 11:00:00;;;;;;;4.22;3.88;;;40.00;1.00;;;;;;5204180;28;20041;-73
2023/08/20 11:02:43;;;;;;;4.82;4.28;;;41.70;1.00;;;;;;5200810;28;20602;-71
2023/08/20 11:05:21;;;;;;;3.93;3.63;;;42.50;1.00;;;;;;5175076;28;20037;-73
2023/08/20 11:07:53;;;;;;;4.88;4.10;;;43.60;1.00;;;;;;5191691;28;20131;-72
2023/08/20 11:10:29;;;;;;;4.82;4.22;;;44.90;1.00;;;;;;5172836;28;20046;-71
2023/08/20 11:13:03;;;;;;;5.20;4.70;;;44.50;1.00;;;;;;5197192;28;20160;-72
2023/08/20 11:15:35;;;;;;;5.03;4.53;;;43.80;1.00;;;;;;5192014;28;20043;-74
2023/08/20 11:18:07;;;;;;;5.83;5.33;;;42.80;1.00;;;;;;5201516;28;20049;-71
2023/08/20 11:20:40;;;;;;;8.18;4.40;;;40.90;1.00;;;;;;5210072;28;20652;-72
2023/08/20 11:23:16;;;;;;;4.55;4.15;;;41.00;1.00;;;;;;5187625;28;20037;-71
2023/08/20 11:25:50;;;;;;;5.05;4.22;;;42.10;1.00;;;;;;5176225;28;20258;-71
2023/08/20 11:28:24;;;;;;;4.65;4.25;;;41.50;1.00;;;;;;5175611;28;20048;-74
2023/08/20 11:30:59;;;;;;;4.22;3.83;;;41.20;1.00;;;;;;5190166;28;20494;-71
2023/08/20 11:33:35;;;;;;;4.47;4.07;;;42.20;1.00;;;;;;5178622;28;20053;-71
2023/08/20 11:36:11;;;;;;;4.72;4.32;;;43.40;1.00;;;;;;5197888;28;20029;-71
2023/08/20 11:38:59;;;;;;;6.25;4.32;;;43.00;1.00;;;;;;5180221;28;20045;-73
2023/08/20 11:41:31;;;;;;;5.10;4.30;;;43.30;1.00;;;;;;5181059;28;20045;-71
2023/08/20 11:44:06;;;;;;;5.18;4.30;;;43.20;1.00;;;;;;5179993;28;20038;-70
2023/08/20 11:46:44;;;;;;;4.65;4.22;;;42.10;1.00;;;;;;5204803;28;20049;-72
2023/08/20 11:49:16;;;;;;;5.30;3.95;;;41.40;1.00;;;;;;5174502;28;20049;-74
2023/08/20 11:51:49;;;;;;;3.72;3.42;;;41.50;1.00;;;;;;5181478;28;20025;-73
2023/08/20 11:54:25;;;;;;;5.60;4.00;;;42.00;1.00;;;;;;5193567;28;20040;-72
2023/08/20 11:57:06;;;;;;;5.00;4.50;;;41.90;1.00;;;;;;5190033;28;20025;-70
2023/08/20 11:59:38;;;;;;;4.38;3.95;;;43.20;1.00;;;;;;5177566;28;20513;-71
2023/08/20 12:02:15;;;;;;;4.05;3.75;;;45.00;1.00;;;;;;5163522;28;20055;-71
2023/08/20 12:04:51;;;;;;;4.20;3.90;;;46.10;1.00;;;;;;5197746;28;20460;-72
2023/08/20 12:07:28;;;;;;;4.72;4.10;;;45.60;1.00;;;;;;5172777;28;20042;-72
2023/08/20 12:10:24;;;;;;;4.55;4.15;;;43.90;1.00;;;;;;5179860;28;20038;-73
2023/08/20 12:13:02;;;;;;;4.40;4.00;;;42.70;1.00;;;;;;5209106;28;20333;-71
2023/08/20 12:15:38;;;;;;;4.40;4.00;;;42.30;1.00;;;;;;5193818;28;20379;-72
2023/08/20 12:18:10;;;;;;;4.68;3.88;;;43.50;1.00;;;;;;5212307;28;20025;-72
2023/08/20 12:20:44;;;;;;;4.30;3.97;;;44.70;1.00;;;;;;5195280;28;20056;-72
2023/08/20 12:23:18;;;;;;;4.63;4.15;;;44.50;1.00;;;;;;5197372;28;20056;-71
2023/08/20 12:25:54;;;;;;;4.25;3.75;;;44.50;1.00;;;;;;5196853;28;20034;-71
2023/08/20 12:28:26;;;;;;;4.80;4.40;;;45.20;1.00;;;;;;5190664;28;20052;-71
2023/08/20 12:30:57;;;;;;;4.40;3.85;;;46.10;1.00;;;;;;5179215;28;20046;-72
2023/08/20 12:33:29;;;;;;;3.78;3.45;;;46.10;30.50;;;;;;5208089;28;20317;-70
2023/08/20 12:36:03;;;;;;;5.10;3.88;;;46.70;55.50;;;;;;5198845;28;20076;-73
2023/08/20 12:38:37;;;;;;;3.85;3.55;;;45.20;99.70;;;;;;5203336;28;20350;-73
2023/08/20 12:41:11;;;;;;;4.18;3.78;;;43.80;24.80;;;;;;5209974;28;20021;-72
2023/08/20 12:43:45;;;;;;;4.18;3.85;;;44.10;4.60;;;;;;5206499;28;20234;-70
2023/08/20 12:46:17;;;;;;;4.78;4.05;;;45.00;97.40;;;;;;5176932;28;20061;-71
2023/08/20 12:48:51;;;;;;;3.33;3.05;;;44.00;1.00;;;;;;5210303;28;20075;-71
2023/08/20 12:51:23;;;;;;;3.80;3.00;;;43.90;28.80;;;;;;5190131;28;20052;-70
2023/08/20 12:53:55;;;;;;;3.80;3.47;;;43.00;22.20;;;;;;5178056;28;20049;-71
2023/08/20 12:56:26;;;;;;;4.45;4.05;;;42.20;1.00;;;;;;5207587;28;20376;-70
2023/08/20 12:59:00;;;;;;;3.65;3.30;;;41.50;1.00;;;;;;5209251;28;20042;-73
2023/08/20 13:01:34;;;;;;;3.83;3.50;;;40.30;54.80;;;;;;5193003;28;20041;-71
2023/08/20 13:04:06;;;;;;;3.83;3.53;;;41.30;45.90;;;;;;5201619;28;20227;-71
2023/08/20 13:06:39;;;;;;;3.60;3.30;;;42.20;99.90;;;;;;5192033;28;20056;-72
2023/08/20 13:09:11;;;;;;;3.30;3.05;;;43.20;58.10;;;;;;5211993;28;20033;-70
2023/08/20 13:11:49;;;;;;;3.58;3.28;;;44.30;99.90;;;;;;5178727;28;20048;-71
2023/08/20 13:14:21;;;;;;;5.70;3.17;;;43.90;1.00;;;;;;5203634;28;20038;-74
2023/08/20 13:16:53;;;;;;;4.90;2.95;;;43.70;1.00;;;;;;5194208;28;20038;-70
2023/08/20 13:19:24;;;;;;;3.72;3.13;;;45.00;99.90;;;;;;5190356;28;20060;-71
2023/08/20 13:21:58;;;;;;;3.38;3.08;;;46.20;99.90;;;;;;5194335;28;20495;-70
2023/08/20 13:24:30;;;;;;;4.68;3.28;;;46.80;99.90;;;;;;5202610;28;20037;-72
2023/08/20 13:27:01;;;;;;;3.60;3.30;;;46.20;99.90;;;;;;5209915;28;20041;-70
2023/08/20 13:29:33;;;;;;;5.05;3.17;;;44.60;99.90;;;;;;5194390;28;20453;-71